Time;durP1;ratioP1;P1;durP2;ratioP2;P2;SDS_P1;SDS_P2;PMS_P1;PMS_P2;Temp;Humidity;BMP_temperature;BMP_pressure;BME280_temperature;BME280_humidity;BME280_pressure;Samples;Min_cycle;Max_cycle;Signal;HPM_P1;HPM_P2
2022/07/17 00:00:25;;;;;;;2.63;2.42;;;;;;;25.35;47.44;100300.38;5050087;28;20203;-77
2022/07/17 00:02:53;;;;;;;3.05;2.70;;;;;;;25.26;47.76;100303.38;5050673;28;20203;-78
2022/07/17 00:05:21;;;;;;;3.20;2.88;;;;;;;25.28;47.46;100313.97;5050466;28;20220;-77
2022/07/17 00:07:48;;;;;;;4.05;2.60;;;;;;;25.11;47.62;100291.63;5049678;28;20204;-75
2022/07/17 00:10:16;;;;;;;4.40;2.55;;;;;;;25.23;47.13;100306.19;5050443;28;20242;-77
2022/07/17 00:12:43;;;;;;;3.03;2.63;;;;;;;25.15;47.35;100303.84;5050034;28;20204;-75
2022/07/17 00:15:10;;;;;;;3.45;2.30;;;;;;;25.13;47.46;100313.66;5050101;28;20220;-76
2022/07/17 00:17:37;;;;;;;4.45;2.25;;;;;;;25.09;47.52;100312.06;5050351;28;20195;-76
2022/07/17 00:20:06;;;;;;;2.78;2.45;;;;;;;25.01;47.51;100306.19;5049420;28;20283;-76
2022/07/17 00:22:34;;;;;;;2.55;2.35;;;;;;;25.06;47.93;100317.50;5049401;28;20195;-76
2022/07/17 00:25:01;;;;;;;2.65;2.45;;;;;;;24.91;47.62;100303.97;5037067;28;20698;-76
2022/07/17 00:27:28;;;;;;;7.10;2.58;;;;;;;24.96;47.93;100318.78;5053136;28;20222;-76
2022/07/17 00:29:55;;;;;;;4.88;2.80;;;;;;;24.79;47.91;100323.00;5053432;28;20199;-77
2022/07/17 00:32:23;;;;;;;3.25;2.55;;;;;;;24.80;48.33;100322.94;5053603;28;20295;-76
2022/07/17 00:34:50;;;;;;;2.35;2.20;;;;;;;24.82;48.41;100321.09;5053955;28;20223;-76
2022/07/17 00:37:17;;;;;;;3.70;2.42;;;;;;;24.73;48.80;100329.41;5018304;28;20199;-76
2022/07/17 00:39:45;;;;;;;5.18;3.17;;;;;;;24.75;49.19;100322.28;5053719;28;20207;-77
2022/07/17 00:42:13;;;;;;;2.80;2.20;;;;;;;24.64;48.94;100322.69;5053824;28;20204;-77
2022/07/17 00:44:41;;;;;;;4.25;2.83;;;;;;;24.49;49.23;100307.38;5053886;28;20269;-77
2022/07/17 00:47:13;;;;;;;2.90;2.42;;;;;;;24.59;49.30;100326.44;5047868;28;20678;-77
2022/07/17 00:49:40;;;;;;;5.72;2.58;;;;;;;24.63;49.54;100328.91;5053508;28;20250;-77
2022/07/17 00:52:07;;;;;;;2.25;2.05;;;;;;;24.48;49.63;100325.97;5052977;28;20624;-76
2022/07/17 00:54:37;;;;;;;8.73;2.70;;;;;;;24.47;49.74;100325.09;5032981;28;20239;-76
2022/07/17 00:57:09;;;;;;;7.07;2.00;;;;;;;24.30;49.69;100305.44;5053247;28;20203;-76
2022/07/17 00:59:36;;;;;;;2.58;2.40;;;;;;;24.28;50.05;100324.06;5053685;28;20196;-77
2022/07/17 01:02:05;;;;;;;4.03;2.53;;;;;;;24.42;50.09;100310.31;5053858;28;20210;-77
2022/07/17 01:04:32;;;;;;;4.65;2.33;;;;;;;24.33;50.27;100315.97;5053261;28;20207;-76
2022/07/17 01:07:00;;;;;;;3.83;2.60;;;;;;;24.17;50.83;100319.19;5053184;28;20208;-76
2022/07/17 01:09:27;;;;;;;5.90;2.60;;;;;;;24.21;50.77;100321.72;5053477;28;20245;-77
2022/07/17 01:11:54;;;;;;;2.63;2.15;;;;;;;24.23;51.00;100320.72;5053796;28;20210;-75
2022/07/17 01:14:23;;;;;;;4.43;2.20;;;;;;;24.13;51.49;100319.34;5053195;28;20223;-76
2022/07/17 01:16:50;;;;;;;2.50;2.30;;;;;;;24.06;51.81;100316.03;5052351;28;20210;-77
2022/07/17 01:19:17;;;;;;;3.78;2.45;;;;;;;23.82;52.29;100287.78;5052948;28;20211;-76
2022/07/17 01:21:49;;;;;;;2.30;2.20;;;;;;;23.99;52.63;100317.16;5052612;28;20188;-76
2022/07/17 01:24:16;;;;;;;2.50;2.30;;;;;;;23.95;53.01;100326.13;5053233;28;20631;-75
2022/07/17 01:26:44;;;;;;;3.72;2.90;;;;;;;23.91;53.15;100313.91;5052198;28;20218;-75
2022/07/17 01:29:12;;;;;;;3.28;2.50;;;;;;;23.90;53.42;100308.69;5052684;28;20298;-76
2022/07/17 01:31:40;;;;;;;6.50;2.60;;;;;;;23.85;53.99;100319.44;5053238;28;20208;-76
2022/07/17 01:34:09;;;;;;;3.90;2.80;;;;;;;23.74;54.83;100320.72;5053140;28;20699;-76
2022/07/17 01:36:36;;;;;;;4.80;2.85;;;;;;;23.70;55.31;100335.84;5017237;28;20218;-76
2022/07/17 01:39:06;;;;;;;3.50;2.65;;;;;;;23.71;55.55;100327.00;5053539;28;20204;-76
2022/07/17 01:41:33;;;;;;;3.63;2.65;;;;;;;23.56;56.39;100324.88;5052823;28;20648;-76
2022/07/17 01:44:00;;;;;;;5.75;2.97;;;;;;;23.47;57.06;100327.84;5053001;28;20214;-75
2022/07/17 01:46:27;;;;;;;3.88;2.88;;;;;;;23.37;57.79;100331.66;5052459;28;20200;-75
2022/07/17 01:48:54;;;;;;;2.35;2.10;;;;;;;23.35;58.24;100323.78;5052278;28;20206;-76
2022/07/17 01:51:21;;;;;;;3.15;2.63;;;;;;;23.26;59.20;100337.31;5052041;28;20191;-76
2022/07/17 01:53:48;;;;;;;2.70;2.50;;;;;;;23.21;59.52;100337.47;5052734;28;20244;-77
2022/07/17 01:56:16;;;;;;;4.10;3.05;;;;;;;23.23;59.93;100340.94;5052481;28;20572;-77
2022/07/17 01:58:43;;;;;;;8.20;2.63;;;;;;;23.18;60.36;100345.53;5052236;28;20191;-76
2022/07/17 02:01:10;;;;;;;3.15;2.95;;;;;;;23.05;61.03;100340.66;5051975;28;20199;-76
2022/07/17 02:03:36;;;;;;;2.55;2.30;;;;;;;22.98;62.00;100337.34;5051580;28;20203;-76
2022/07/17 02:06:03;;;;;;;3.42;2.95;;;;;;;22.71;62.44;100311.78;5017075;28;20206;-75
2022/07/17 02:08:30;;;;;;;3.00;2.80;;;;;;;22.93;62.97;100333.13;5052257;28;20204;-76
2022/07/17 02:10:57;;;;;;;3.17;2.75;;;;;;;22.72;63.28;100332.00;5052303;28;20572;-75
2022/07/17 02:13:25;;;;;;;2.58;2.38;;;;;;;22.88;63.63;100354.41;5051818;28;20226;-76
2022/07/17 02:15:52;;;;;;;9.80;2.97;;;;;;;22.83;63.68;100351.03;5016326;28;20300;-75
2022/07/17 02:18:19;;;;;;;4.30;3.08;;;;;;;22.79;64.26;100349.41;5051893;28;20207;-74
2022/07/17 02:20:49;;;;;;;4.30;2.70;;;;;;;22.60;64.90;100354.34;5052018;28;20194;-76
2022/07/17 02:23:16;;;;;;;3.08;2.88;;;;;;;22.47;65.04;100320.41;5051727;28;20702;-75
2022/07/17 02:25:43;;;;;;;2.67;2.47;;;;;;;22.55;65.54;100344.81;5051568;28;20200;-76
2022/07/17 02:28:10;;;;;;;6.20;2.90;;;;;;;22.51;65.72;100337.91;5016834;28;20203;-75
2022/07/17 02:30:38;;;;;;;2.80;2.50;;;;;;;22.50;66.24;100352.91;5051692;28;20195;-75
2022/07/17 02:33:06;;;;;;;6.93;3.15;;;;;;;22.36;66.86;100355.09;5051531;28;20204;-76
2022/07/17 02:35:33;;;;;;;8.98;2.80;;;;;;;22.16;67.75;100346.84;5051017;28;20224;-76
2022/07/17 02:38:01;;;;;;;14.18;3.00;;;;;;;22.27;67.44;100343.88;5050878;28;20223;-76
2022/07/17 02:40:28;;;;;;;3.55;3.00;;;;;;;22.26;67.80;100347.47;5051263;28;20199;-75
2022/07/17 02:42:55;;;;;;;3.20;2.90;;;;;;;22.27;67.65;100355.31;5051594;28;20200;-75
2022/07/17 02:45:24;;;;;;;3.72;2.45;;;;;;;22.34;67.71;100366.59;5051034;28;20695;-76
2022/07/17 02:47:53;;;;;;;7.43;2.63;;;;;;;22.27;69.10;100359.75;5051341;28;20202;-77
2022/07/17 02:50:20;;;;;;;3.28;2.70;;;;;;;22.34;68.95;100370.09;5051044;28;20249;-76
2022/07/17 02:52:49;;;;;;;2.63;2.42;;;;;;;22.19;69.78;100346.75;5051425;28;20221;-76
2022/07/17 02:55:17;;;;;;;5.47;3.00;;;;;;;22.08;70.32;100344.41;5053620;28;20700;-76
2022/07/17 02:57:46;;;;;;;6.95;4.82;;;;;;;22.16;71.38;100374.13;5057454;28;20210;-76
2022/07/17 03:00:15;;;;;;;4.97;2.67;;;;;;;22.27;71.53;100383.50;5060672;28;20594;-77
2022/07/17 03:02:42;;;;;;;3.58;2.95;;;;;;;22.04;72.99;100373.59;5058925;28;20194;-75
2022/07/17 03:05:10;;;;;;;3.85;3.05;;;;;;;22.06;72.81;100375.28;5023265;28;20223;-76
2022/07/17 03:07:37;;;;;;;5.88;3.30;;;;;;;21.96;73.65;100387.00;5024134;28;20210;-77
2022/07/17 03:10:05;;;;;;;4.88;2.53;;;;;;;21.99;74.19;100392.19;5059431;28;20211;-77
2022/07/17 03:12:32;;;;;;;3.38;3.08;;;;;;;22.12;73.26;100377.75;5060933;28;20195;-77
2022/07/17 03:14:59;;;;;;;3.53;3.13;;;;;;;22.07;73.83;100399.94;5023969;28;20223;-75
2022/07/17 03:17:26;;;;;;;4.97;2.88;;;;;;;21.95;75.09;100393.19;5058005;28;20290;-78
2022/07/17 03:19:53;;;;;;;3.42;3.08;;;;;;;21.93;76.82;100378.31;5060871;28;20228;-77
2022/07/17 03:22:21;;;;;;;7.22;3.03;;;;;;;21.98;78.39;100395.75;5060840;28;20577;-76
2022/07/17 03:24:48;;;;;;;3.45;3.15;;;;;;;21.98;78.15;100395.75;5026367;28;20207;-76
2022/07/17 03:27:15;;;;;;;4.55;3.05;;;;;;;21.93;78.67;100388.88;5050420;28;20208;-76
2022/07/17 03:29:41;;;;;;;4.22;3.17;;;;;;;22.12;78.34;100401.53;5049726;28;20203;-77
2022/07/17 03:32:08;;;;;;;4.45;3.28;;;;;;;22.38;76.13;100399.94;5049791;28;20203;-76
2022/07/17 03:34:35;;;;;;;3.92;3.22;;;;;;;22.54;75.76;100403.91;5050235;28;20195;-75
2022/07/17 03:37:02;;;;;;;4.95;3.33;;;;;;;22.81;75.58;100413.69;5014613;28;20206;-75
2022/07/17 03:39:30;;;;;;;3.65;2.90;;;;;;;22.98;75.83;100410.53;5050575;28;20199;-75
2022/07/17 03:41:57;;;;;;;5.80;3.45;;;;;;;22.98;75.13;100418.47;5050933;28;20207;-76
2022/07/17 03:44:24;;;;;;;5.03;3.15;;;;;;;23.37;73.33;100421.66;5050635;28;20214;-75
2022/07/17 03:46:51;;;;;;;4.45;2.97;;;;;;;23.56;73.19;100413.13;5050616;28;20199;-76
2022/07/17 03:49:18;;;;;;;3.13;2.78;;;;;;;23.71;71.49;100427.63;5015484;28;20726;-75
2022/07/17 03:51:44;;;;;;;3.97;3.22;;;;;;;23.90;72.17;100426.06;5050683;28;20199;-77
2022/07/17 03:54:11;;;;;;;4.13;3.22;;;;;;;23.64;69.36;100268.09;5050623;28;20247;-77
2022/07/17 03:56:40;;;;;;;6.60;3.58;;;;;;;24.61;69.30;100434.16;5050134;28;20234;-76
2022/07/17 03:59:06;;;;;;;3.28;3.00;;;;;;;25.49;65.29;100436.09;5051956;28;20206;-75
2022/07/17 04:01:33;;;;;;;3.58;3.28;;;;;;;25.55;61.79;100445.59;5054331;28;20200;-75
2022/07/17 04:04:00;;;;;;;3.40;3.10;;;;;;;25.95;60.06;100419.13;5054307;28;20203;-76
2022/07/17 04:06:27;;;;;;;2.92;2.72;;;;;;;26.01;57.09;100453.41;5053869;28;20211;-77
2022/07/17 04:08:54;;;;;;;5.47;3.05;;;;;;;26.12;55.78;100439.66;5035637;28;20199;-76
2022/07/17 04:11:20;;;;;;;3.15;2.95;;;;;;;26.13;56.57;100450.22;5054138;28;20199;-74
2022/07/17 04:13:49;;;;;;;2.70;2.50;;;;;;;26.79;53.83;100453.50;5054374;28;20207;-73
2022/07/17 04:16:16;;;;;;;7.40;3.58;;;;;;;26.70;54.68;100456.59;5054004;28;20215;-77
2022/07/17 04:18:43;;;;;;;3.55;3.28;;;;;;;26.53;53.79;100459.16;5054235;28;20191;-77
2022/07/17 04:21:11;;;;;;;5.72;3.38;;;;;;;26.02;54.74;100468.44;5054236;28;20207;-76
2022/07/17 04:23:38;;;;;;;6.95;2.95;;;;;;;25.87;55.87;100469.06;5042993;28;20291;-76
2022/07/17 04:26:07;;;;;;;3.58;2.90;;;;;;;26.22;54.19;100474.75;5041923;28;20202;-75
2022/07/17 04:28:34;;;;;;;5.38;3.20;;;;;;;26.31;54.01;100476.97;5053727;28;20262;-75
2022/07/17 04:31:02;;;;;;;2.88;2.63;;;;;;;26.59;52.76;100485.47;5054142;28;20203;-77
2022/07/17 04:33:29;;;;;;;2.90;2.65;;;;;;;25.88;55.21;100485.88;5053719;28;20194;-77
2022/07/17 04:35:56;;;;;;;4.22;2.55;;;;;;;26.49;54.08;100489.50;5053869;28;20226;-76
2022/07/17 04:38:23;;;;;;;3.03;2.75;;;;;;;26.96;53.46;100496.25;5053889;28;20702;-75
2022/07/17 04:40:50;;;;;;;3.10;2.65;;;;;;;27.02;52.16;100489.75;5053989;28;20198;-74
2022/07/17 04:43:16;;;;;;;7.43;3.30;;;;;;;27.27;51.51;100494.81;5053554;28;20199;-76
2022/07/17 04:45:43;;;;;;;3.33;3.03;;;;;;;27.41;51.54;100511.00;5018462;28;20195;-75
2022/07/17 04:48:11;;;;;;;4.05;2.70;;;;;;;27.06;51.51;100484.25;5053154;28;20655;-76
2022/07/17 04:50:38;;;;;;;3.78;2.63;;;;;;;27.29;51.21;100520.44;5053879;28;20199;-77
2022/07/17 04:53:05;;;;;;;5.07;2.95;;;;;;;27.14;51.07;100497.19;5053970;28;20197;-76
2022/07/17 04:55:32;;;;;;;4.18;2.70;;;;;;;26.52;51.85;100452.09;5063308;28;20234;-78
2022/07/17 04:57:59;;;;;;;3.72;3.17;;;;;;;27.03;52.69;100524.31;5053136;28;20203;-75
2022/07/17 05:00:26;;;;;;;10.48;3.30;;;;;;;26.33;52.82;100494.59;5052603;28;20207;-75
2022/07/17 05:02:53;;;;;;;4.72;3.17;;;;;;;27.32;51.73;100527.44;5052834;28;20272;-76
2022/07/17 05:05:22;;;;;;;6.07;2.90;;;;;;;26.92;52.11;100537.25;5052641;28;20532;-76
2022/07/17 05:07:49;;;;;;;3.15;2.67;;;;;;;26.28;53.13;100533.84;5028654;28;20191;-77
2022/07/17 05:10:16;;;;;;;2.80;2.60;;;;;;;27.04;51.59;100531.34;5051761;28;20199;-76
2022/07/17 05:12:43;;;;;;;2.97;2.78;;;;;;;27.06;51.42;100539.28;5052782;28;20620;-76
2022/07/17 05:15:10;;;;;;;3.72;2.80;;;;;;;27.80;49.84;100537.56;5052517;28;20191;-76
2022/07/17 05:17:37;;;;;;;5.03;3.25;;;;;;;28.20;48.27;100549.84;5017612;28;20211;-76
2022/07/17 05:20:05;;;;;;;4.38;3.08;;;;;;;27.92;48.55;100559.19;5009251;28;20195;-76
2022/07/17 05:22:33;;;;;;;5.07;3.30;;;;;;;27.72;48.99;100545.94;5017394;28;20203;-76
2022/07/17 05:25:00;;;;;;;7.53;4.63;;;;;;;27.94;48.35;100533.28;5052479;28;20202;-76
2022/07/17 05:27:28;;;;;;;5.72;3.38;;;;;;;27.93;48.39;100552.88;5049641;28;20198;-76
2022/07/17 05:29:55;;;;;;;3.33;2.95;;;;;;;27.92;48.28;100558.31;5052612;28;20202;-77
2022/07/17 05:32:22;;;;;;;4.90;3.03;;;;;;;27.99;50.00;100560.59;5056389;28;20187;-74
2022/07/17 05:34:48;;;;;;;5.13;3.28;;;;;;;27.82;50.09;100544.56;5051736;28;20298;-72
2022/07/17 05:37:15;;;;;;;10.60;3.88;;;;;;;28.49;49.04;100546.56;5051522;28;20606;-75
2022/07/17 05:39:43;;;;;;;5.63;3.15;;;;;;;28.43;47.24;100533.53;5052468;28;20214;-76
2022/07/17 05:42:10;;;;;;;4.10;3.70;;;;;;;28.30;47.74;100572.44;5051516;28;20199;-72
2022/07/17 05:44:37;;;;;;;6.88;4.53;;;;;;;27.94;48.96;100559.94;5052619;28;20207;-73
2022/07/17 05:47:04;;;;;;;6.63;3.78;;;;;;;28.00;48.28;100540.97;5052344;28;20203;-75
2022/07/17 05:49:31;;;;;;;4.13;3.20;;;;;;;28.83;47.00;100553.69;5017316;28;20206;-77
2022/07/17 05:51:58;;;;;;;5.70;3.40;;;;;;;29.02;47.07;100558.00;5050563;28;20282;-75
2022/07/17 05:54:25;;;;;;;3.20;2.88;;;;;;;28.70;48.06;100556.16;5040594;28;20231;-75
2022/07/17 05:56:53;;;;;;;3.45;3.22;;;;;;;28.83;48.84;100567.91;5052333;28;20231;-75
2022/07/17 05:59:20;;;;;;;3.33;3.03;;;;;;;28.33;48.91;100572.28;5052503;28;20195;-76
2022/07/17 06:01:46;;;;;;;4.72;3.38;;;;;;;28.14;49.76;100569.69;5051597;28;20207;-75
2022/07/17 06:04:13;;;;;;;5.47;3.20;;;;;;;28.04;50.39;100569.22;5016756;28;20211;-75
2022/07/17 06:06:40;;;;;;;4.10;3.70;;;;;;;28.10;49.64;100569.91;5054613;28;20210;-74
2022/07/17 06:09:07;;;;;;;3.78;3.38;;;;;;;28.23;49.94;100545.22;5051549;28;20203;-75
2022/07/17 06:11:34;;;;;;;4.32;3.92;;;;;;;28.71;48.90;100565.91;5054042;28;20226;-75
2022/07/17 06:14:02;;;;;;;11.82;3.80;;;;;;;28.79;48.15;100562.84;5015972;28;20199;-74
2022/07/17 06:16:29;;;;;;;4.68;3.28;;;;;;;28.95;48.09;100569.94;5050537;28;20218;-74
2022/07/17 06:18:56;;;;;;;4.45;4.05;;;;;;;28.75;47.53;100577.28;5018447;28;20203;-76
2022/07/17 06:21:23;;;;;;;7.78;5.03;;;;;;;29.40;47.18;100560.41;5034944;28;20194;-75
2022/07/17 06:23:49;;;;;;;5.80;4.90;;;;;;;29.23;47.04;100547.09;5051399;28;20199;-76
2022/07/17 06:26:16;;;;;;;6.30;5.13;;;;;;;29.11;47.07;100564.63;5053664;28;20202;-74
2022/07/17 06:28:43;;;;;;;5.60;5.03;;;;;;;28.63;47.51;100578.75;5049070;28;20207;-74
2022/07/17 06:31:11;;;;;;;7.00;6.30;;;;;;;28.45;48.30;100571.66;5053744;28;20199;-75
2022/07/17 06:33:38;;;;;;;8.00;5.97;;;;;;;28.50;48.39;100569.66;5048148;28;20207;-74
2022/07/17 06:36:05;;;;;;;9.18;6.15;;;;;;;28.32;48.82;100578.56;5049686;28;20634;-76
2022/07/17 06:38:34;;;;;;;9.88;5.63;;;;;;;28.21;49.00;100575.56;5049531;28;20214;-73
2022/07/17 06:41:01;;;;;;;6.03;5.43;;;;;;;27.54;50.56;100568.13;5048306;28;20207;-76
2022/07/17 06:43:28;;;;;;;6.97;6.13;;;;;;;27.70;50.90;100584.25;5048816;28;20652;-77
2022/07/17 06:45:55;;;;;;;9.43;5.97;;;;;;;27.69;51.27;100580.72;5050454;28;20211;-78
2022/07/17 06:48:23;;;;;;;9.07;5.90;;;;;;;27.40;52.01;100578.53;5050890;28;20207;-75
2022/07/17 06:50:50;;;;;;;7.43;5.97;;;;;;;27.37;53.30;100568.00;5050877;28;20207;-75
2022/07/17 06:53:17;;;;;;;15.32;6.97;;;;;;;27.27;51.90;100556.94;5047913;28;20220;-76
2022/07/17 06:55:44;;;;;;;14.60;8.70;;;;;;;27.44;52.03;100573.00;5050483;28;20730;-75
2022/07/17 06:58:11;;;;;;;13.98;10.07;;;;;;;27.16;52.27;100577.00;5053428;28;20203;-75
2022/07/17 07:00:38;;;;;;;15.52;10.82;;;;;;;27.39;52.46;100576.81;5048337;28;20203;-75
2022/07/17 07:03:05;;;;;;;16.98;11.93;;;;;;;27.29;53.29;100565.69;5050264;28;20215;-74
2022/07/17 07:05:34;;;;;;;20.40;13.57;;;;;;;27.48;51.50;100568.41;5050706;28;20210;-74
2022/07/17 07:08:00;;;;;;;19.00;13.73;;;;;;;27.45;52.76;100579.22;5050807;28;20633;-77
2022/07/17 07:10:28;;;;;;;18.83;13.40;;;;;;;27.68;51.05;100575.50;5050633;28;20218;-77
2022/07/17 07:12:54;;;;;;;16.10;12.68;;;;;;;27.46;50.68;100572.97;5043116;28;20679;-74
2022/07/17 07:15:21;;;;;;;18.90;12.82;;;;;;;27.32;52.52;100586.03;5046959;28;20210;-76
2022/07/17 07:17:48;;;;;;;15.65;11.77;;;;;;;27.61;50.96;100590.91;5046626;28;20238;-75
2022/07/17 07:20:15;;;;;;;15.02;9.85;;;;;;;27.52;51.85;100584.19;5046975;28;20754;-75
2022/07/17 07:22:43;;;;;;;15.40;9.93;;;;;;;27.67;50.63;100585.28;5046796;28;20203;-75
2022/07/17 07:25:10;;;;;;;11.63;8.07;;;;;;;27.74;50.92;100591.19;5046677;28;20214;-76
2022/07/17 07:27:38;;;;;;;11.10;5.72;;;;;;;27.88;49.64;100588.72;5047012;28;20207;-77
2022/07/17 07:30:09;;;;;;;4.93;4.43;;;;;;;27.69;50.04;100587.84;5046260;28;20191;-76
2022/07/17 07:32:36;;;;;;;3.97;3.60;;;;;;;27.74;48.62;100588.50;5012365;28;20688;-75
2022/07/17 07:35:03;;;;;;;9.13;3.95;;;;;;;28.04;49.03;100587.88;5050156;28;20207;-75
2022/07/17 07:37:30;;;;;;;5.72;3.13;;;;;;;28.15;49.29;100589.19;5050715;28;20246;-78
2022/07/17 07:39:59;;;;;;;9.70;3.58;;;;;;;28.08;47.60;100589.50;5050697;28;21047;-75
2022/07/17 07:42:25;;;;;;;6.97;4.43;;;;;;;28.32;47.16;100591.91;5050820;28;20233;-76
2022/07/17 07:44:53;;;;;;;4.93;2.80;;;;;;;28.37;46.46;100593.41;5001139;28;20204;-77
2022/07/17 07:47:20;;;;;;;6.20;2.83;;;;;;;28.51;45.53;100595.38;5050836;28;20202;-76
2022/07/17 07:49:47;;;;;;;5.32;2.83;;;;;;;28.58;45.88;100596.78;5050314;28;20211;-76
2022/07/17 07:52:13;;;;;;;3.78;3.38;;;;;;;28.65;46.01;100592.00;5050956;28;20210;-74
2022/07/17 07:54:40;;;;;;;6.43;3.28;;;;;;;28.86;46.48;100582.94;5050578;28;20241;-74
2022/07/17 07:57:09;;;;;;;8.70;3.40;;;;;;;28.75;45.96;100590.63;5050309;28;20619;-76
2022/07/17 07:59:36;;;;;;;3.75;3.38;;;;;;;28.60;47.07;100570.03;5051848;28;20203;-74
2022/07/17 08:02:03;;;;;;;6.15;3.10;;;;;;;28.84;47.35;100561.63;5053816;28;20233;-74
2022/07/17 08:04:30;;;;;;;2.88;2.60;;;;;;;29.09;46.26;100593.25;5019108;28;20210;-74
2022/07/17 08:06:57;;;;;;;3.30;3.00;;;;;;;29.12;46.19;100578.84;5052729;28;20215;-74
2022/07/17 08:09:24;;;;;;;6.10;2.78;;;;;;;28.97;46.52;100585.88;5054488;28;20232;-75
2022/07/17 08:11:51;;;;;;;5.15;2.80;;;;;;;28.76;47.04;100587.88;5053710;28;20198;-73
2022/07/17 08:14:19;;;;;;;7.00;2.70;;;;;;;28.62;45.52;100593.03;5040491;28;20207;-74
2022/07/17 08:16:46;;;;;;;2.92;2.72;;;;;;;28.70;45.55;100574.84;5054144;28;20235;-74
2022/07/17 08:19:13;;;;;;;4.55;2.67;;;;;;;28.80;48.01;100591.25;5053988;28;20196;-74
2022/07/17 08:21:40;;;;;;;3.00;2.70;;;;;;;29.09;48.14;100584.38;5053944;28;20210;-74
2022/07/17 08:24:06;;;;;;;4.57;2.53;;;;;;;29.22;46.43;100591.63;5052158;28;20195;-74
2022/07/17 08:26:33;;;;;;;4.40;2.40;;;;;;;29.11;45.65;100585.16;4999646;28;20200;-74
2022/07/17 08:29:00;;;;;;;3.08;2.60;;;;;;;29.28;44.26;100585.16;5034003;28;20199;-75
2022/07/17 08:31:28;;;;;;;3.22;2.05;;;;;;;29.34;42.78;100588.34;5041214;28;20226;-74
2022/07/17 08:33:55;;;;;;;3.38;2.20;;;;;;;29.74;42.74;100586.16;5035052;28;20218;-73
2022/07/17 08:36:22;;;;;;;1.98;1.83;;;;;;;29.71;38.73;100602.38;5054274;28;20222;-75
2022/07/17 08:38:49;;;;;;;2.60;2.10;;;;;;;29.70;35.88;100597.97;5053765;28;20550;-77
2022/07/17 08:41:17;;;;;;;2.33;2.10;;;;;;;29.61;35.31;100596.66;5018302;28;20203;-75
2022/07/17 08:43:48;;;;;;;3.20;2.28;;;;;;;29.83;36.28;100590.97;5053107;28;20203;-74
2022/07/17 08:46:17;;;;;;;2.75;2.20;;;;;;;29.49;34.93;100560.78;5046572;28;20300;-73
2022/07/17 08:48:47;;;;;;;4.53;2.75;;;;;;;29.56;34.99;100588.03;5047641;28;20214;-72
2022/07/17 08:51:17;;;;;;;6.78;2.92;;;;;;;29.76;36.22;100590.44;5050281;28;20211;-73
2022/07/17 08:53:44;;;;;;;5.82;2.70;;;;;;;29.17;36.14;100496.69;5050097;28;20235;-72
2022/07/17 08:56:11;;;;;;;3.95;2.70;;;;;;;29.90;36.46;100576.34;5049433;28;20631;-76
2022/07/17 08:58:38;;;;;;;3.90;2.83;;;;;;;30.11;35.33;100579.63;5050352;28;20217;-74
2022/07/17 09:01:05;;;;;;;2.95;2.25;;;;;;;30.31;37.74;100576.63;5011220;28;20214;-76
2022/07/17 09:03:32;;;;;;;2.63;2.42;;;;;;;30.45;36.41;100579.38;5014529;28;20206;-75
2022/07/17 09:06:01;;;;;;;4.45;2.35;;;;;;;30.39;35.49;100571.69;5050164;28;20203;-75
2022/07/17 09:08:32;;;;;;;3.15;2.20;;;;;;;30.40;34.88;100570.72;5050004;28;20296;-77
2022/07/17 09:10:59;;;;;;;5.97;2.22;;;;;;;30.35;35.23;100551.41;5050176;28;20225;-74
2022/07/17 09:13:28;;;;;;;6.82;4.60;;;;;;;30.59;34.52;100576.75;5049237;28;20203;-76
2022/07/17 09:15:58;;;;;;;3.58;1.88;;;;;;;30.61;34.88;100569.47;5049686;28;20217;-74
2022/07/17 09:18:24;;;;;;;6.05;2.88;;;;;;;30.31;35.13;100557.91;5050289;28;20659;-74
2022/07/17 09:20:53;;;;;;;4.38;3.25;;;;;;;30.50;35.58;100566.59;5049317;28;20198;-72
2022/07/17 09:23:23;;;;;;;7.47;3.10;;;;;;;30.58;35.39;100569.66;5047972;28;20606;-74
2022/07/17 09:25:52;;;;;;;4.22;3.88;;;;;;;30.43;34.47;100565.22;5029234;28;20208;-74
2022/07/17 09:28:20;;;;;;;5.88;3.55;;;;;;;30.57;35.14;100554.56;5031414;28;20215;-74
2022/07/17 09:30:52;;;;;;;4.95;3.47;;;;;;;30.83;35.09;100559.19;5032667;28;20207;-75
2022/07/17 09:33:21;;;;;;;7.07;3.83;;;;;;;30.74;34.61;100559.78;5012235;28;20604;-73
2022/07/17 09:35:51;;;;;;;4.97;4.10;;;;;;;30.88;35.35;100551.75;5039541;28;20207;-73
2022/07/17 09:38:31;;;;;;;5.85;2.92;;;;;;;30.50;34.60;100555.91;5044674;28;20230;-74
2022/07/17 09:41:16;;;;;;;3.78;2.85;;;;;;;30.82;33.52;100557.47;5041629;28;20208;-73
2022/07/17 09:43:49;;;;;;;3.95;2.58;;;;;;;30.83;34.17;100564.56;5046474;28;20206;-73
2022/07/17 09:46:20;;;;;;;4.07;3.05;;;;;;;30.48;33.68;100563.13;5047064;28;20253;-72
2022/07/17 09:48:49;;;;;;;4.70;3.13;;;;;;;30.69;34.46;100545.78;5047403;28;20207;-69
2022/07/17 09:51:18;;;;;;;2.58;2.42;;;;;;;30.85;33.92;100551.94;5046567;28;20207;-80
2022/07/17 09:53:48;;;;;;;3.50;3.20;;;;;;;30.82;33.40;100556.63;5046124;28;20286;-72
2022/07/17 09:56:17;;;;;;;3.88;2.60;;;;;;;30.68;31.74;100522.63;5047069;28;20579;-76
2022/07/17 09:58:48;;;;;;;2.60;2.20;;;;;;;30.91;32.62;100556.91;5001236;28;20227;-75
2022/07/17 10:01:16;;;;;;;4.22;2.17;;;;;;;30.77;31.17;100538.16;5045779;28;20214;-74
2022/07/17 10:03:43;;;;;;;2.42;2.25;;;;;;;30.64;30.85;100542.53;5050647;28;20292;-73
2022/07/17 10:06:11;;;;;;;2.92;2.72;;;;;;;30.72;31.45;100528.66;5050393;28;20214;-74
2022/07/17 10:08:39;;;;;;;2.85;2.28;;;;;;;31.10;31.06;100545.97;5048243;28;20206;-74
2022/07/17 10:11:09;;;;;;;7.25;2.45;;;;;;;30.59;30.42;100525.88;5047554;28;20207;-73
2022/07/17 10:13:37;;;;;;;2.85;2.60;;;;;;;30.75;29.99;100542.72;5047546;28;20218;-78
2022/07/17 10:16:05;;;;;;;4.38;2.42;;;;;;;30.64;30.33;100477.41;5012932;28;20298;-74
2022/07/17 10:18:41;;;;;;;2.50;2.08;;;;;;;31.36;29.27;100546.97;5047566;28;20223;-74
2022/07/17 10:21:21;;;;;;;18.83;13.10;;;;;;;31.40;29.93;100532.44;5046110;28;20207;-77
2022/07/17 10:24:06;;;;;;;30.48;22.23;;;;;;;31.37;30.54;100528.13;5046408;28;20194;-76
2022/07/17 10:26:39;;;;;;;3.20;2.10;;;;;;;31.39;30.98;100544.13;5047292;28;20706;-75
2022/07/17 10:29:09;;;;;;;2.42;2.33;;;;;;;31.44;30.97;100539.31;5041039;28;20202;-75
2022/07/17 10:31:36;;;;;;;2.92;2.55;;;;;;;31.41;30.05;100502.84;5046430;28;20241;-74
2022/07/17 10:34:05;;;;;;;3.17;2.20;;;;;;;31.50;30.73;100527.34;5034391;28;20203;-74
2022/07/17 10:36:37;;;;;;;3.35;3.08;;;;;;;31.46;31.23;100532.06;5047857;28;20210;-74
2022/07/17 10:39:18;;;;;;;5.28;2.95;;;;;;;31.14;31.09;100514.47;5034101;28;20214;-73
2022/07/17 10:42:01;;;;;;;3.58;2.72;;;;;;;31.17;31.26;100496.38;5047374;28;20198;-73
2022/07/17 10:44:29;;;;;;;4.13;2.50;;;;;;;31.16;31.97;100524.13;5047095;28;20206;-73
2022/07/17 10:46:56;;;;;;;4.00;3.08;;;;;;;31.00;32.01;100514.50;5047311;28;20206;-73
2022/07/17 10:49:23;;;;;;;4.40;2.45;;;;;;;30.95;32.19;100502.19;5047948;28;20198;-74
2022/07/17 10:51:51;;;;;;;8.10;2.72;;;;;;;31.33;31.94;100523.06;5047208;28;20214;-76
2022/07/17 10:54:19;;;;;;;4.53;2.50;;;;;;;31.37;32.11;100506.69;5047008;28;20292;-74
2022/07/17 10:56:47;;;;;;;2.90;2.53;;;;;;;31.64;32.38;100506.78;5046847;28;20210;-74
2022/07/17 10:59:14;;;;;;;6.22;2.83;;;;;;;31.61;31.98;100488.16;5046382;28;20206;-75
2022/07/17 11:01:41;;;;;;;5.38;2.70;;;;;;;31.94;32.83;100499.34;5047458;28;20587;-75
2022/07/17 11:04:08;;;;;;;3.67;2.72;;;;;;;32.12;32.28;100496.44;5046597;28;20207;-74
2022/07/17 11:06:36;;;;;;;3.28;2.83;;;;;;;31.99;32.88;100498.19;5044255;28;20897;-75
2022/07/17 11:09:05;;;;;;;6.30;3.15;;;;;;;32.07;32.93;100495.91;5046871;28;20214;-75
2022/07/17 11:11:40;;;;;;;8.93;2.88;;;;;;;32.04;33.13;100493.38;5046852;28;20299;-77
2022/07/17 11:14:14;;;;;;;3.17;2.50;;;;;;;32.01;32.38;100477.47;5008427;28;20199;-75
2022/07/17 11:16:46;;;;;;;3.45;3.00;;;;;;;32.05;32.02;100493.28;5047312;28;20593;-73
2022/07/17 11:19:20;;;;;;;5.10;2.70;;;;;;;32.09;32.53;100493.97;5046324;28;20203;-76
2022/07/17 11:21:48;;;;;;;4.20;3.15;;;;;;;31.84;32.01;100452.66;5046870;28;20595;-76
2022/07/17 11:24:15;;;;;;;8.88;3.10;;;;;;;32.06;32.42;100488.81;5008535;28;20214;-78
2022/07/17 11:26:43;;;;;;;4.07;2.67;;;;;;;31.93;32.43;100470.81;5047056;28;20207;-75